createdAt,value
2019-01-27T00:02:18.682Z,60.10
2019-01-27T00:04:47.393Z,57.47
2019-01-27T00:07:16.133Z,58.53
2019-01-27T00:09:44.835Z,56.07
2019-01-27T00:12:13.484Z,50.43
2019-01-27T00:14:42.293Z,49.97
2019-01-27T00:17:11.057Z,45.20
2019-01-27T00:19:39.584Z,44.13
2019-01-27T00:22:08.245Z,51.53
2019-01-27T00:24:36.980Z,55.30
2019-01-27T00:27:05.609Z,48.23
2019-01-27T00:29:34.271Z,53.60
2019-01-27T00:32:02.985Z,52.87
2019-01-27T00:34:31.655Z,53.63
2019-01-27T00:37:00.313Z,53.07
2019-01-27T00:39:29.005Z,51.37
2019-01-27T00:41:57.652Z,46.13
2019-01-27T00:44:26.307Z,57.03
2019-01-27T00:46:55.008Z,55.03
2019-01-27T00:49:23.648Z,57.53
2019-01-27T00:51:52.300Z,70.23
2019-01-27T00:54:21.037Z,74.93
2019-01-27T00:56:51.249Z,64.90
2019-01-27T00:59:20.359Z,63.13
2019-01-27T01:01:49.091Z,66.60
2019-01-27T01:04:17.777Z,80.00
2019-01-27T01:06:46.440Z,63.17
2019-01-27T01:09:15.428Z,56.83
2019-01-27T01:11:44.092Z,58.97
2019-01-27T01:14:12.776Z,63.83
2019-01-27T01:16:41.503Z,62.80
2019-01-27T01:19:10.146Z,51.50
2019-01-27T01:21:38.809Z,63.57
2019-01-27T01:24:07.511Z,59.03
2019-01-27T01:26:36.173Z,59.03
2019-01-27T01:29:04.816Z,62.13
2019-01-27T01:31:33.532Z,55.13
2019-01-27T01:34:02.207Z,51.33
2019-01-27T01:36:32.792Z,71.70
2019-01-27T01:39:01.212Z,53.00
2019-01-27T01:41:29.876Z,48.83
2019-01-27T01:43:58.512Z,55.03
2019-01-27T01:46:27.219Z,51.57
2019-01-27T01:48:55.884Z,73.45
2019-01-27T01:51:24.542Z,67.73
2019-01-27T01:53:53.267Z,58.03
2019-01-27T01:56:21.923Z,84.60
2019-01-27T01:58:50.590Z,79.80
2019-01-27T02:01:19.324Z,62.27
2019-01-27T02:03:47.982Z,55.10
2019-01-27T02:06:16.640Z,57.23
2019-01-27T02:08:45.399Z,55.87
2019-01-27T02:11:14.050Z,52.07
2019-01-27T02:13:42.713Z,55.53
2019-01-27T02:16:11.399Z,87.20
2019-01-27T02:18:40.034Z,88.83
2019-01-27T02:21:08.682Z,96.67
2019-01-27T02:23:37.352Z,55.73
2019-01-27T02:26:07.202Z,157.10
2019-01-27T02:28:35.876Z,76.50
2019-01-27T02:31:04.558Z,110.47
2019-01-27T02:33:33.224Z,190.47
2019-01-27T02:36:01.960Z,103.53
2019-01-27T02:38:32.451Z,92.73
2019-01-27T02:41:01.150Z,66.47
2019-01-27T02:43:29.804Z,106.00
2019-01-27T02:45:58.491Z,262.60
2019-01-27T02:48:27.301Z,85.93
2019-01-27T02:50:55.945Z,200.87
2019-01-27T02:53:24.661Z,259.60
2019-01-27T02:55:53.321Z,195.47
2019-01-27T02:58:21.996Z,133.10
2019-01-27T03:00:50.681Z,404.10
2019-01-27T03:03:19.344Z,228.00
2019-01-27T03:06:01.325Z,204.80
2019-01-27T03:08:31.555Z,411.43
2019-01-27T03:11:00.201Z,588.60
2019-01-27T03:13:28.882Z,211.17
2019-01-27T03:15:57.532Z,137.52
2019-01-27T03:18:26.230Z,261.40
2019-01-27T03:20:54.924Z,453.60
2019-01-27T03:23:23.583Z,435.50
2019-01-27T03:25:52.241Z,169.33
2019-01-27T03:28:20.956Z,341.17
2019-01-27T03:30:51.179Z,295.87
2019-01-27T03:33:19.828Z,340.23
2019-01-27T03:35:48.533Z,349.50
2019-01-27T03:38:17.170Z,339.83
2019-01-27T03:40:45.840Z,676.43
2019-01-27T03:43:14.691Z,215.80
2019-01-27T03:45:43.372Z,364.77
2019-01-27T03:48:12.022Z,352.47
2019-01-27T03:50:40.726Z,227.47
2019-01-27T03:53:09.427Z,193.00
2019-01-27T03:55:38.085Z,410.47
2019-01-27T03:58:06.801Z,319.60
2019-01-27T04:00:35.446Z,296.63
2019-01-27T04:03:08.629Z,306.67
2019-01-27T04:06:00.511Z,290.40
2019-01-27T04:08:29.195Z,379.97
2019-01-27T04:10:58.080Z,369.97
2019-01-27T04:13:26.725Z,347.93
2019-01-27T04:15:55.412Z,386.40
2019-01-27T04:18:24.485Z,800.60
2019-01-27T04:20:53.128Z,1053.13
2019-01-27T04:23:23.362Z,217.73
2019-01-27T04:25:53.396Z,186.27
2019-01-27T04:28:22.085Z,815.70
2019-01-27T04:30:50.747Z,252.93
2019-01-27T04:33:19.456Z,843.13
2019-01-27T04:35:48.101Z,249.77
2019-01-27T04:38:17.849Z,202.00
2019-01-27T04:40:46.607Z,155.20
2019-01-27T04:43:15.293Z,124.17
2019-01-27T04:45:43.927Z,232.13
2019-01-27T04:48:12.678Z,407.30
2019-01-27T04:50:41.343Z,234.50
2019-01-27T04:53:09.989Z,183.70
2019-01-27T04:55:38.742Z,134.67
2019-01-27T04:58:07.404Z,483.17
2019-01-27T05:00:36.045Z,144.93
2019-01-27T05:03:10.152Z,94.80
2019-01-27T05:05:40.351Z,120.17
2019-01-27T05:08:10.586Z,162.17
2019-01-27T05:10:39.293Z,90.27
2019-01-27T05:13:07.957Z,121.50
2019-01-27T05:15:38.582Z,280.30
2019-01-27T05:18:06.948Z,113.57
2019-01-27T05:20:36.305Z,118.97
2019-01-27T05:23:05.153Z,475.80
2019-01-27T05:25:33.830Z,167.17
2019-01-27T05:28:02.477Z,94.33
2019-01-27T05:30:35.564Z,57.73
2019-01-27T05:33:05.846Z,97.73
2019-01-27T05:35:38.608Z,95.97
2019-01-27T05:38:07.275Z,177.93
2019-01-27T05:40:35.969Z,178.83
2019-01-27T05:43:04.685Z,606.73
2019-01-27T05:45:33.336Z,339.77
2019-01-27T05:48:02.029Z,206.73
2019-01-27T05:50:30.828Z,228.33
2019-01-27T05:52:59.501Z,350.77
2019-01-27T05:55:28.206Z,326.88
2019-01-27T05:57:56.872Z,127.00
2019-01-27T06:00:42.662Z,119.07
2019-01-27T06:03:11.296Z,87.03
2019-01-27T06:05:39.942Z,102.27
2019-01-27T06:08:08.716Z,70.20
2019-01-27T06:10:37.406Z,133.40
2019-01-27T06:13:06.059Z,121.53
2019-01-27T06:15:34.770Z,77.53
2019-01-27T06:18:03.442Z,160.20
2019-01-27T06:20:32.143Z,174.23
2019-01-27T06:23:00.938Z,129.72
2019-01-27T06:25:29.629Z,70.97
2019-01-27T06:27:58.258Z,131.20
2019-01-27T06:30:28.037Z,146.67
2019-01-27T06:33:01.251Z,448.03
2019-01-27T06:35:30.089Z,271.10
2019-01-27T06:38:00.085Z,89.60
2019-01-27T06:40:28.745Z,140.50
2019-01-27T06:42:57.416Z,283.43
2019-01-27T06:45:26.118Z,70.93
2019-01-27T06:47:54.834Z,61.77
2019-01-27T06:50:23.500Z,54.77
2019-01-27T06:52:52.182Z,91.53
2019-01-27T06:55:21.794Z,58.27
2019-01-27T06:57:50.450Z,57.93
2019-01-27T07:00:26.192Z,51.63
2019-01-27T07:03:01.834Z,46.13
2019-01-27T07:05:36.105Z,40.27
2019-01-27T07:08:22.593Z,37.37
2019-01-27T07:11:01.699Z,37.50
2019-01-27T07:13:33.153Z,41.63
2019-01-27T07:16:12.237Z,40.43
2019-01-27T07:18:43.205Z,34.90
2019-01-27T07:21:16.402Z,32.67
2019-01-27T07:23:48.855Z,30.03
2019-01-27T07:26:19.051Z,66.63
2019-01-27T07:28:52.735Z,51.70
2019-01-27T07:31:36.187Z,375.87
2019-01-27T07:34:15.690Z,46.27
2019-01-27T07:36:57.882Z,40.07
2019-01-27T07:39:28.160Z,42.90
2019-01-27T07:42:01.109Z,98.53
2019-01-27T07:44:31.365Z,40.93
2019-01-27T07:47:09.186Z,116.70
2019-01-27T07:49:51.511Z,61.53
2019-01-27T07:52:39.912Z,40.97
2019-01-27T07:55:25.240Z,61.20
2019-01-27T07:57:55.514Z,51.07
2019-01-27T08:00:25.732Z,40.80
2019-01-27T08:02:55.988Z,41.03
2019-01-27T08:05:42.215Z,36.63
2019-01-27T08:08:21.143Z,33.77
2019-01-27T08:10:51.467Z,30.10
2019-01-27T08:13:24.622Z,31.17
2019-01-27T08:16:11.584Z,33.87
2019-01-27T08:18:41.935Z,109.30
2019-01-27T08:21:21.184Z,40.87
2019-01-27T08:24:00.296Z,32.77
2019-01-27T08:26:30.579Z,34.90
2019-01-27T08:29:00.815Z,35.50
2019-01-27T08:31:39.967Z,40.77
2019-01-27T08:34:10.207Z,37.67
2019-01-27T08:36:40.445Z,35.57
2019-01-27T08:39:10.721Z,44.13
2019-01-27T08:41:53.645Z,37.60
2019-01-27T08:44:40.014Z,46.47
2019-01-27T08:47:08.669Z,53.57
2019-01-27T08:49:41.378Z,48.60
2019-01-27T08:52:10.093Z,43.93
2019-01-27T08:54:38.767Z,45.50
2019-01-27T08:57:07.455Z,43.83
2019-01-27T08:59:36.148Z,40.70
2019-01-27T09:02:21.618Z,51.18
2019-01-27T09:04:52.786Z,49.03
2019-01-27T09:07:28.994Z,56.30
2019-01-27T09:10:08.261Z,58.23
2019-01-27T09:12:44.217Z,44.17
2019-01-27T09:15:14.545Z,45.27
2019-01-27T09:17:45.852Z,34.53
2019-01-27T09:20:19.039Z,34.57
2019-01-27T09:22:49.238Z,32.93
2019-01-27T09:25:19.455Z,33.63
2019-01-27T09:27:49.741Z,36.40
2019-01-27T09:30:20.232Z,32.80
2019-01-27T09:32:53.545Z,35.30
2019-01-27T09:35:32.636Z,34.03
2019-01-27T09:38:02.986Z,37.27
2019-01-27T09:40:33.218Z,36.47
2019-01-27T09:43:20.887Z,34.67
2019-01-27T09:45:57.925Z,43.57
2019-01-27T09:48:22.956Z,48.07
2019-01-27T09:50:53.248Z,41.17
2019-01-27T09:53:46.051Z,39.07
2019-01-27T09:56:27.824Z,30.93
2019-01-27T09:59:01.038Z,30.33
2019-01-27T10:01:35.425Z,27.03
2019-01-27T10:04:05.680Z,30.60
2019-01-27T10:06:35.930Z,32.37
2019-01-27T10:09:09.420Z,24.67
2019-01-27T10:11:39.628Z,30.97
2019-01-27T10:14:20.278Z,35.07
2019-01-27T10:16:57.043Z,73.47
2019-01-27T10:19:46.280Z,31.07
2019-01-27T10:22:19.523Z,28.47
2019-01-27T10:24:58.704Z,25.57
2019-01-27T10:27:31.918Z,24.30
2019-01-27T10:30:10.070Z,27.50
2019-01-27T10:32:43.227Z,38.07
2019-01-27T10:35:13.499Z,47.87
2019-01-27T10:38:01.628Z,64.87
2019-01-27T10:40:39.754Z,79.77
2019-01-27T10:43:06.472Z,76.13
2019-01-27T10:45:52.880Z,79.80
2019-01-27T10:48:34.858Z,66.60
2019-01-27T10:51:10.730Z,62.10
2019-01-27T10:53:40.972Z,45.80
2019-01-27T10:56:13.839Z,42.03
2019-01-27T10:58:47.028Z,43.90
2019-01-27T11:01:30.184Z,49.40
2019-01-27T11:04:16.330Z,50.80
2019-01-27T11:06:52.300Z,44.57
2019-01-27T11:09:31.055Z,49.63
2019-01-27T11:12:10.439Z,55.67
2019-01-27T11:14:56.673Z,57.07
2019-01-27T11:24:30.017Z,48.17
2019-01-27T11:27:07.849Z,45.00
2019-01-27T11:29:46.555Z,39.40
2019-01-27T11:32:22.642Z,47.47
2019-01-27T11:35:18.327Z,50.63
2019-01-27T11:37:33.351Z,56.03
2019-01-27T11:40:18.589Z,45.27
2019-01-27T11:42:48.798Z,52.30
2019-01-27T11:45:21.780Z,54.13
2019-01-27T11:47:52.039Z,48.50
2019-01-27T11:50:22.316Z,54.33
2019-01-27T11:52:55.304Z,61.27
2019-01-27T11:55:23.917Z,63.63
2019-01-27T11:57:52.604Z,72.40
2019-01-27T12:00:23.986Z,74.30
2019-01-27T12:02:52.689Z,87.33
2019-01-27T12:05:21.544Z,70.67
2019-01-27T12:07:50.427Z,73.90
2019-01-27T12:10:19.067Z,78.70
2019-01-27T12:12:48.033Z,82.10
2019-01-27T12:15:18.798Z,88.00
2019-01-27T12:17:47.422Z,92.50
2019-01-27T12:20:16.117Z,90.47
2019-01-27T12:22:44.871Z,77.00
2019-01-27T12:25:15.320Z,79.47
2019-01-27T12:27:46.425Z,73.83
2019-01-27T12:30:19.210Z,100.10
2019-01-27T12:32:47.923Z,101.07
2019-01-27T12:35:19.591Z,99.60
2019-01-27T12:37:48.317Z,106.73
2019-01-27T12:40:19.279Z,103.53
2019-01-27T12:42:49.734Z,111.73
2019-01-27T12:45:18.422Z,116.23
2019-01-27T12:47:47.098Z,117.80
2019-01-27T12:50:17.658Z,82.33
2019-01-27T12:52:48.010Z,85.37
2019-01-27T12:55:16.743Z,78.77
2019-01-27T12:57:45.409Z,80.80
2019-01-27T13:00:35.182Z,72.70
2019-01-27T13:03:03.867Z,81.97
2019-01-27T13:05:32.540Z,88.47
2019-01-27T13:08:01.256Z,80.93
2019-01-27T13:10:29.924Z,73.20
2019-01-27T13:12:58.562Z,64.83
2019-01-27T13:15:27.328Z,63.00
2019-01-27T13:18:01.446Z,63.27
2019-01-27T13:20:29.482Z,76.67
2019-01-27T13:22:58.234Z,63.47
2019-01-27T13:25:26.892Z,71.83
2019-01-27T13:27:55.583Z,69.23
2019-01-27T13:30:25.868Z,66.03
2019-01-27T13:32:54.509Z,72.93
2019-01-27T13:35:24.835Z,79.90
2019-01-27T13:37:53.563Z,85.53
2019-01-27T13:40:24.555Z,76.30
2019-01-27T13:42:58.193Z,88.57
2019-01-27T13:45:31.392Z,90.27
2019-01-27T13:48:01.592Z,90.00
2019-01-27T13:50:30.238Z,98.60
2019-01-27T13:52:59.007Z,100.03
2019-01-27T13:55:29.758Z,111.77
2019-01-27T13:57:58.418Z,113.57
2019-01-27T14:00:29.121Z,115.30
2019-01-27T14:02:57.856Z,126.20
2019-01-27T14:05:26.611Z,125.00
2019-01-27T14:07:55.362Z,125.07
2019-01-27T14:10:25.958Z,125.05
2019-01-27T14:12:57.823Z,118.67
2019-01-27T14:15:31.793Z,109.67
2019-01-27T14:18:00.571Z,117.50
2019-01-27T14:20:30.418Z,116.63
2019-01-27T14:22:59.052Z,118.40
2019-01-27T14:25:34.269Z,126.23
2019-01-27T14:28:01.647Z,125.27
2019-01-27T14:30:36.855Z,128.53
2019-01-27T14:33:05.640Z,81.03
2019-01-27T14:35:34.355Z,111.20
2019-01-27T14:38:03.031Z,116.37
2019-01-27T14:40:31.745Z,105.57
2019-01-27T14:43:00.939Z,104.90
2019-01-27T14:45:33.358Z,102.87
2019-01-27T14:48:03.192Z,107.53
2019-01-27T14:50:35.214Z,102.13
2019-01-27T14:53:03.859Z,108.93
2019-01-27T14:55:32.698Z,112.93
2019-01-27T14:58:01.364Z,113.93
2019-01-27T15:00:36.203Z,121.20
2019-01-27T15:03:02.420Z,109.17
2019-01-27T15:05:31.017Z,96.43
2019-01-27T15:08:00.802Z,100.50
2019-01-27T15:10:33.364Z,84.43
2019-01-27T15:13:03.119Z,100.63
2019-01-27T15:15:31.783Z,93.93
2019-01-27T15:18:03.224Z,82.63
2019-01-27T15:20:34.493Z,90.47
2019-01-27T15:23:06.070Z,85.30
2019-01-27T15:25:37.278Z,101.40
2019-01-27T15:28:06.002Z,99.13
2019-01-27T15:30:39.239Z,85.10
2019-01-27T15:33:12.536Z,82.23
2019-01-27T15:35:43.100Z,66.03
2019-01-27T15:38:11.519Z,80.47
2019-01-27T15:40:41.736Z,77.87
2019-01-27T15:43:14.025Z,75.30
2019-01-27T15:45:44.240Z,81.60
2019-01-27T15:48:21.806Z,78.63
2019-01-27T15:51:12.479Z,73.40
2019-01-27T15:53:44.092Z,83.30
2019-01-27T15:56:15.472Z,80.03
2019-01-27T15:58:51.540Z,95.62
2019-01-27T16:01:23.243Z,83.53
2019-01-27T16:03:54.740Z,74.13
2019-01-27T16:06:23.446Z,81.10
2019-01-27T16:08:53.635Z,72.63
2019-01-27T16:11:36.481Z,76.70
2019-01-27T16:14:09.925Z,71.70
2019-01-27T16:16:39.105Z,80.23
2019-01-27T16:19:11.812Z,60.03
2019-01-27T16:21:42.000Z,56.97
2019-01-27T16:24:16.603Z,75.20
2019-01-27T16:26:45.270Z,70.50
2019-01-27T16:29:17.324Z,51.90
2019-01-27T16:31:51.028Z,62.87
2019-01-27T16:34:24.273Z,62.00
2019-01-27T16:36:54.139Z,85.90
2019-01-27T16:39:22.877Z,72.77
2019-01-27T16:41:53.091Z,76.93
2019-01-27T16:44:23.383Z,73.53
2019-01-27T16:46:53.645Z,63.33
2019-01-27T16:49:24.238Z,59.40
2019-01-27T16:51:53.606Z,54.90
2019-01-27T16:54:30.232Z,48.90
2019-01-27T16:59:59.882Z,46.83
2019-01-27T17:02:28.970Z,50.77
2019-01-27T17:05:00.591Z,50.20
2019-01-27T17:07:50.268Z,45.03
2019-01-27T17:10:19.063Z,59.53
2019-01-27T17:12:52.418Z,64.45
2019-01-27T17:15:30.807Z,67.67
2019-01-27T17:18:04.536Z,57.13
2019-01-27T17:20:36.037Z,60.97
2019-01-27T17:23:06.334Z,59.20
2019-01-27T17:25:34.973Z,69.20
2019-01-27T17:28:11.729Z,71.63
2019-01-27T17:30:40.408Z,73.80
2019-01-27T17:33:12.180Z,84.03
2019-01-27T17:35:43.219Z,92.37
2019-01-27T17:38:14.471Z,88.00
2019-01-27T17:40:43.138Z,95.63
2019-01-27T17:43:13.427Z,102.67
2019-01-27T17:45:45.148Z,101.23
2019-01-27T17:48:15.404Z,90.17
2019-01-27T17:50:47.415Z,110.70
2019-01-27T17:53:18.702Z,103.90
2019-01-27T17:55:54.566Z,86.17
2019-01-27T17:58:31.454Z,92.43
2019-01-27T18:01:18.971Z,78.53
2019-01-27T18:04:03.846Z,82.50
2019-01-27T18:06:38.461Z,79.80
2019-01-27T18:09:16.975Z,79.50
2019-01-27T18:11:57.490Z,71.47
2019-01-27T18:14:35.244Z,72.70
2019-01-27T18:17:04.586Z,54.40
2019-01-27T18:19:39.073Z,66.92
2019-01-27T18:22:09.629Z,63.00
2019-01-27T18:24:39.760Z,61.00
2019-01-27T18:27:08.645Z,60.00
2019-01-27T18:29:39.342Z,59.43
2019-01-27T18:32:11.182Z,62.57
2019-01-27T18:34:39.864Z,54.10
2019-01-27T18:37:11.251Z,59.13
2019-01-27T18:39:40.000Z,62.00
2019-01-27T18:42:09.206Z,61.67
2019-01-27T18:44:41.017Z,56.00
2019-01-27T18:47:09.788Z,60.50
2019-01-27T18:49:38.634Z,67.90
2019-01-27T18:52:07.493Z,62.03
2019-01-27T18:56:22.089Z,58.27
2019-01-27T18:59:07.888Z,54.93
2019-01-27T19:01:54.817Z,45.80
2019-01-27T19:04:41.388Z,44.87
2019-01-27T19:07:29.135Z,47.40
2019-01-27T19:10:00.818Z,51.60
2019-01-27T19:12:31.561Z,32.20
2019-01-27T19:15:13.356Z,49.67
2019-01-27T19:18:01.261Z,50.40
2019-01-27T19:20:43.410Z,36.97
2019-01-27T19:23:13.732Z,50.23
2019-01-27T19:25:45.648Z,43.70
2019-01-27T19:28:16.017Z,48.40
2019-01-27T19:31:03.058Z,43.57
2019-01-27T19:33:36.744Z,48.13
2019-01-27T19:36:23.582Z,49.60
2019-01-27T19:39:02.707Z,47.50
2019-01-27T19:41:51.231Z,45.97
2019-01-27T19:44:30.062Z,40.07
2019-01-27T19:47:18.364Z,40.30
2019-01-27T19:49:56.324Z,41.43
2019-01-27T19:52:35.713Z,38.83
2019-01-27T19:55:08.605Z,41.00
2019-01-27T19:57:38.902Z,43.63
2019-01-27T20:00:15.787Z,41.53
2019-01-27T20:02:52.086Z,43.00
2019-01-27T20:05:34.111Z,43.07
2019-01-27T20:08:07.241Z,44.67
2019-01-27T20:10:49.756Z,40.23
2019-01-27T20:13:26.308Z,40.73
2019-01-27T20:16:05.395Z,47.33
2019-01-27T20:21:53.841Z,47.73
2019-01-27T20:24:37.193Z,46.77
2019-01-27T20:27:07.559Z,48.87
2019-01-27T20:32:44.954Z,56.27
2019-01-27T20:35:25.637Z,51.83
2019-01-27T20:38:12.336Z,43.83
2019-01-27T20:40:48.585Z,47.23
2019-01-27T20:43:18.881Z,48.07
2019-01-27T20:45:58.269Z,41.27
2019-01-27T20:48:31.273Z,47.17
2019-01-27T20:51:01.531Z,39.43
2019-01-27T20:53:31.783Z,42.97
2019-01-27T20:56:06.655Z,42.63
2019-01-27T20:58:51.978Z,50.98
2019-01-27T21:01:32.493Z,44.50
2019-01-27T21:04:07.062Z,50.00
2019-01-27T21:06:41.447Z,41.33
2019-01-27T21:09:14.481Z,47.13
2019-01-27T21:11:55.045Z,42.80
2019-01-27T21:14:28.233Z,44.70
2019-01-27T21:17:01.274Z,43.47
2019-01-27T21:19:31.676Z,45.67
2019-01-27T21:22:00.405Z,46.50
2019-01-27T21:24:31.327Z,47.07
2019-01-27T21:27:06.470Z,46.00
2019-01-27T21:29:32.177Z,50.80
2019-01-27T21:32:14.738Z,46.20
2019-01-27T21:34:43.390Z,44.83
2019-01-27T21:37:18.010Z,45.77
2019-01-27T21:40:17.072Z,45.93
2019-01-27T21:42:47.666Z,44.07
2019-01-27T21:45:22.342Z,46.83
2019-01-27T21:47:51.074Z,49.07
2019-01-27T21:50:22.763Z,46.30
2019-01-27T21:52:54.262Z,49.60
2019-01-27T21:55:27.351Z,43.87
2019-01-27T21:57:58.828Z,43.17
2019-01-27T22:00:27.489Z,44.47
2019-01-27T22:02:58.941Z,40.80
2019-01-27T22:05:30.485Z,48.97
2019-01-27T22:07:59.135Z,46.97
2019-01-27T22:10:30.912Z,43.27
2019-01-27T22:12:59.566Z,45.53
2019-01-27T22:15:29.764Z,53.07
2019-01-27T22:17:58.407Z,43.47
2019-01-27T22:20:27.171Z,46.07
2019-01-27T22:22:55.864Z,46.13
2019-01-27T22:25:24.543Z,48.03
2019-01-27T22:27:53.288Z,51.13
2019-01-27T22:30:21.950Z,56.60
2019-01-27T22:32:52.224Z,50.27
2019-01-27T22:35:20.940Z,50.07
2019-01-27T22:37:50.820Z,57.43
2019-01-27T22:40:23.368Z,57.33
2019-01-27T22:42:57.678Z,57.47
2019-01-27T22:45:26.335Z,43.77
2019-01-27T22:47:55.063Z,52.73
2019-01-27T22:50:23.712Z,61.87
2019-01-27T22:52:53.771Z,45.93
2019-01-27T22:55:25.913Z,47.23
2019-01-27T22:57:54.645Z,49.17
2019-01-27T23:00:40.050Z,47.53
2019-01-27T23:03:14.559Z,46.13
2019-01-27T23:05:43.226Z,41.60
2019-01-27T23:08:11.972Z,38.23
2019-01-27T23:10:40.634Z,44.60
2019-01-27T23:13:09.296Z,41.13
2019-01-27T23:15:37.991Z,38.83
2019-01-27T23:18:06.662Z,42.37
2019-01-27T23:20:35.336Z,42.53
2019-01-27T23:23:04.039Z,43.30
2019-01-27T23:25:32.697Z,44.10
2019-01-27T23:28:01.350Z,44.83
2019-01-27T23:30:30.082Z,41.30
2019-01-27T23:32:58.770Z,38.07
2019-01-27T23:35:27.436Z,41.10
2019-01-27T23:37:56.186Z,43.97
2019-01-27T23:40:24.883Z,44.10
2019-01-27T23:42:53.563Z,34.70
2019-01-27T23:45:22.264Z,40.77
2019-01-27T23:47:50.966Z,41.63
2019-01-27T23:50:19.697Z,38.97
2019-01-27T23:52:48.404Z,44.80
2019-01-27T23:55:17.036Z,44.77
2019-01-27T23:57:45.726Z,36.23
